createdAt,value
2018-05-13T06:24:09.291Z,13.30
2018-05-13T06:26:42.688Z,11.37
2018-05-13T06:29:15.184Z,12.53
2018-05-13T06:31:47.537Z,12.07
2018-05-13T06:34:19.903Z,11.00
2018-05-13T06:36:52.240Z,11.53
2018-05-13T06:39:24.698Z,12.17
2018-05-13T06:41:57.111Z,12.57
2018-05-13T06:44:29.575Z,11.70
2018-05-13T06:47:02.100Z,10.90
2018-05-13T06:49:34.514Z,11.27
2018-05-13T06:52:07.697Z,10.63
2018-05-13T06:54:40.135Z,16.90
2018-05-13T06:57:12.511Z,11.80
2018-05-13T06:59:44.970Z,9.77
2018-05-13T07:02:17.343Z,10.90
2018-05-13T07:04:49.662Z,10.60
2018-05-13T07:07:22.007Z,11.30
2018-05-13T07:09:55.125Z,12.17
2018-05-13T07:12:27.560Z,11.80
2018-05-13T07:14:59.946Z,12.47
2018-05-13T07:17:33.364Z,11.83
2018-05-13T07:20:06.411Z,11.67
2018-05-13T07:22:40.579Z,10.97
2018-05-13T07:25:12.967Z,9.87
2018-05-13T07:27:45.266Z,11.43
2018-05-13T07:30:17.838Z,11.70
2018-05-13T07:32:50.271Z,10.73
2018-05-13T07:35:22.683Z,11.23
2018-05-13T07:37:55.024Z,10.03
2018-05-13T07:40:27.520Z,11.17
2018-05-13T07:43:00.028Z,13.93
2018-05-13T07:45:32.494Z,10.20
2018-05-13T07:48:05.002Z,10.87
2018-05-13T07:50:37.345Z,11.10
2018-05-13T07:53:09.798Z,12.73
2018-05-13T07:55:42.255Z,11.60
2018-05-13T07:58:15.412Z,11.10
2018-05-13T08:00:47.818Z,11.27
2018-05-13T08:03:20.273Z,11.97
2018-05-13T08:05:52.662Z,11.50
2018-05-13T08:08:25.143Z,11.27
2018-05-13T08:10:57.515Z,11.00
2018-05-13T08:13:30.035Z,13.07
2018-05-13T08:16:03.194Z,13.87
2018-05-13T08:18:35.651Z,11.77
2018-05-13T08:21:07.935Z,11.80
2018-05-13T08:23:40.429Z,11.17
2018-05-13T08:26:12.896Z,12.30
2018-05-13T08:28:45.266Z,11.80
2018-05-13T08:31:17.590Z,12.13
2018-05-13T08:33:50.683Z,12.47
2018-05-13T08:36:23.115Z,11.53
2018-05-13T08:38:55.564Z,11.90
2018-05-13T08:41:27.931Z,11.27
2018-05-13T08:44:01.023Z,14.23
2018-05-13T08:46:33.495Z,11.60
2018-05-13T08:49:05.919Z,11.50
2018-05-13T08:51:39.097Z,10.97
2018-05-13T08:54:11.406Z,11.63
2018-05-13T08:56:44.494Z,12.40
2018-05-13T08:59:16.916Z,10.77
2018-05-13T09:01:49.429Z,12.43
2018-05-13T09:04:21.806Z,12.20
2018-05-13T09:06:54.151Z,11.23
2018-05-13T09:09:26.599Z,14.23
2018-05-13T09:11:59.139Z,12.53
2018-05-13T09:14:31.472Z,14.63
2018-05-13T09:17:03.854Z,12.00
2018-05-13T09:19:36.311Z,13.23
2018-05-13T09:22:08.735Z,13.27
2018-05-13T09:24:41.198Z,13.30
2018-05-13T09:27:14.250Z,14.67
2018-05-13T09:29:47.459Z,14.17
2018-05-13T09:32:19.958Z,13.83
2018-05-13T09:34:52.385Z,16.50
2018-05-13T09:37:24.865Z,15.90
2018-05-13T09:39:57.913Z,17.23
2018-05-13T09:42:31.033Z,17.20
2018-05-13T09:45:03.479Z,23.30
2018-05-13T09:47:35.865Z,18.97
2018-05-13T09:50:08.451Z,17.47
2018-05-13T09:52:40.943Z,19.93
2018-05-13T09:55:13.402Z,22.03
2018-05-13T09:57:45.899Z,19.63
2018-05-13T10:00:18.202Z,21.07
2018-05-13T10:02:50.563Z,21.00
2018-05-13T10:05:23.906Z,23.00
2018-05-13T10:07:56.360Z,23.50
2018-05-13T10:10:29.001Z,21.73
2018-05-13T10:13:01.401Z,26.30
2018-05-13T10:15:33.792Z,29.80
2018-05-13T10:18:06.306Z,29.03
2018-05-13T10:20:38.579Z,28.10
2018-05-13T10:23:10.965Z,27.93
2018-05-13T10:25:43.380Z,39.10
2018-05-13T10:28:15.907Z,28.53
2018-05-13T10:30:48.326Z,26.30
2018-05-13T10:33:20.678Z,24.50
2018-05-13T10:35:53.067Z,22.07
2018-05-13T10:38:25.493Z,23.63
2018-05-13T10:40:57.852Z,20.70
2018-05-13T10:43:30.204Z,17.40
2018-05-13T10:46:02.514Z,16.63
2018-05-13T10:48:34.963Z,12.60
2018-05-13T10:51:07.407Z,13.67
2018-05-13T10:53:39.706Z,11.07
2018-05-13T10:56:12.217Z,11.70
2018-05-13T10:58:44.643Z,13.13
2018-05-13T11:01:17.038Z,13.70
2018-05-13T11:03:50.321Z,11.70
2018-05-13T11:06:22.711Z,9.83
2018-05-13T11:08:55.935Z,10.30
2018-05-13T11:11:28.523Z,9.97
2018-05-13T11:14:00.931Z,10.60
2018-05-13T11:16:34.066Z,12.20
2018-05-13T11:19:07.229Z,11.20
2018-05-13T11:21:39.539Z,12.83
2018-05-13T11:24:12.775Z,13.00
2018-05-13T11:26:45.313Z,10.50
2018-05-13T11:29:17.596Z,12.00
2018-05-13T11:31:50.128Z,11.47
2018-05-13T11:34:22.571Z,12.43
2018-05-13T11:36:55.949Z,11.17
2018-05-13T11:39:28.361Z,13.10
2018-05-13T11:42:00.702Z,15.20
2018-05-13T11:44:33.115Z,12.73
2018-05-13T11:47:05.610Z,13.93
2018-05-13T11:49:37.994Z,12.57
2018-05-13T11:52:10.371Z,14.87
2018-05-13T11:54:43.496Z,15.13
2018-05-13T11:57:20.471Z,13.77
2018-05-13T11:59:53.809Z,14.03
2018-05-13T12:02:26.258Z,14.23
2018-05-13T12:04:58.594Z,15.10
2018-05-13T12:07:31.252Z,14.20
2018-05-13T12:10:03.760Z,15.43
2018-05-13T12:12:36.221Z,19.63
2018-05-13T12:15:08.606Z,17.17
2018-05-13T12:17:41.078Z,14.20
2018-05-13T12:20:14.122Z,17.33
2018-05-13T12:22:46.552Z,14.60
2018-05-13T12:25:18.842Z,17.27
2018-05-13T12:27:52.375Z,15.60
2018-05-13T12:30:24.910Z,16.00
2018-05-13T12:32:58.408Z,14.33
2018-05-13T12:35:30.795Z,15.50
2018-05-13T12:38:03.205Z,13.80
2018-05-13T12:40:36.227Z,14.63
2018-05-13T12:43:08.607Z,15.40
2018-05-13T12:45:40.942Z,12.73
2018-05-13T12:48:13.303Z,15.00
2018-05-13T12:50:45.761Z,18.13
2018-05-13T12:53:18.084Z,14.10
2018-05-13T12:55:51.604Z,13.27
2018-05-13T12:58:24.889Z,16.30
2018-05-13T13:00:57.962Z,18.97
2018-05-13T13:03:31.170Z,15.90
2018-05-13T13:06:03.483Z,12.70
2018-05-13T13:08:36.879Z,14.13
2018-05-13T13:11:09.158Z,14.23
2018-05-13T13:13:41.571Z,16.70
2018-05-13T13:16:13.951Z,14.00
2018-05-13T13:18:47.241Z,14.60
2018-05-13T13:21:20.418Z,16.17
2018-05-13T13:23:52.807Z,15.50
2018-05-13T13:26:25.146Z,14.73
2018-05-13T13:28:58.298Z,14.77
2018-05-13T13:31:31.400Z,12.43
2018-05-13T13:34:04.555Z,13.90
2018-05-13T13:36:37.810Z,13.77
2018-05-13T13:39:10.195Z,14.97
2018-05-13T13:41:43.375Z,16.23
2018-05-13T13:44:16.724Z,14.70
2018-05-13T13:46:49.168Z,13.93
2018-05-13T13:49:21.511Z,13.47
2018-05-13T13:51:54.568Z,13.70
2018-05-13T13:54:27.807Z,14.60
2018-05-13T14:12:17.366Z,12.70
2018-05-13T14:14:49.664Z,13.30
2018-05-13T14:17:22.063Z,14.50
2018-05-13T14:19:54.740Z,14.00
2018-05-13T14:22:28.523Z,15.80
2018-05-13T14:25:00.996Z,13.30
2018-05-13T14:27:33.388Z,15.33
2018-05-13T14:30:07.229Z,14.10
2018-05-13T14:32:39.807Z,14.67
2018-05-13T14:35:12.309Z,11.90
2018-05-13T14:37:45.541Z,13.70
2018-05-13T14:40:19.044Z,15.83
2018-05-13T14:42:51.650Z,12.07
2018-05-13T14:45:24.017Z,12.27
2018-05-13T14:47:56.417Z,15.37
2018-05-13T14:50:28.912Z,13.50
2018-05-13T14:53:02.553Z,18.73
2018-05-13T14:55:37.171Z,12.87
2018-05-13T14:58:15.203Z,12.00
2018-05-13T15:00:48.042Z,12.70
2018-05-13T15:03:21.482Z,14.67
2018-05-13T15:05:53.999Z,12.90
2018-05-13T15:08:28.836Z,14.33
2018-05-13T15:11:01.371Z,12.13
2018-05-13T15:13:34.875Z,14.23
2018-05-13T15:16:07.527Z,13.10
2018-05-13T15:18:40.266Z,13.90
2018-05-13T15:21:12.883Z,12.70
2018-05-13T15:23:45.314Z,15.70
2018-05-13T15:26:35.850Z,15.93
2018-05-13T15:29:08.360Z,13.00
2018-05-13T15:31:40.824Z,15.73
2018-05-13T15:34:15.403Z,15.53
2018-05-13T15:36:50.919Z,15.63
2018-05-13T15:39:24.418Z,14.10
2018-05-13T15:41:56.870Z,14.23
2018-05-13T15:44:30.123Z,14.33
2018-05-13T15:47:02.556Z,14.60
2018-05-13T15:49:35.145Z,11.47
2018-05-13T15:52:08.268Z,14.50
2018-05-13T15:54:40.732Z,13.17
2018-05-13T15:57:13.339Z,12.30
2018-05-13T15:59:45.790Z,13.60
2018-05-13T16:02:18.528Z,11.50
2018-05-13T16:04:51.108Z,13.70
2018-05-13T16:07:23.627Z,12.60
2018-05-13T16:09:56.177Z,12.17
2018-05-13T16:12:29.595Z,15.07
2018-05-13T16:15:02.245Z,13.97
2018-05-13T16:17:34.727Z,13.97
2018-05-13T16:20:07.184Z,13.37
2018-05-13T16:22:39.652Z,12.20
2018-05-13T16:25:12.106Z,11.53
2018-05-13T16:27:44.635Z,11.80
2018-05-13T16:30:17.123Z,12.57
2018-05-13T16:32:49.530Z,10.63
2018-05-13T16:35:21.849Z,11.30
2018-05-13T16:37:54.357Z,12.20
2018-05-13T16:40:27.395Z,10.33
2018-05-13T16:43:01.012Z,11.63
2018-05-13T16:45:33.266Z,16.97
2018-05-13T16:48:05.777Z,10.67
2018-05-13T16:50:38.473Z,14.00
2018-05-13T16:53:12.115Z,9.03
2018-05-13T16:55:44.609Z,10.30
2018-05-13T16:58:21.148Z,12.00
2018-05-13T17:00:54.737Z,11.67
2018-05-13T17:03:28.249Z,9.67
2018-05-13T17:06:01.511Z,11.77
2018-05-13T17:08:34.256Z,10.27
2018-05-13T17:11:06.853Z,10.30
2018-05-13T17:13:40.040Z,9.63
2018-05-13T17:16:12.437Z,10.00
2018-05-13T17:18:44.948Z,10.73
2018-05-13T17:21:17.571Z,9.30
2018-05-13T17:23:50.451Z,10.63
2018-05-13T17:26:23.675Z,9.43
2018-05-13T17:28:56.142Z,12.47
2018-05-13T17:31:29.396Z,10.53
2018-05-13T17:34:01.804Z,8.60
2018-05-13T17:36:34.156Z,9.77
2018-05-13T17:39:10.133Z,8.23
2018-05-13T17:41:42.588Z,9.97
2018-05-13T17:44:15.252Z,8.40
2018-05-13T17:46:47.784Z,9.30
2018-05-13T17:49:20.351Z,7.73
2018-05-13T17:51:59.122Z,8.13
2018-05-13T17:54:31.663Z,8.20
2018-05-13T17:57:05.050Z,9.73
2018-05-13T17:59:38.481Z,8.67
2018-05-13T18:02:11.176Z,10.83
2018-05-13T18:04:43.818Z,9.80
2018-05-13T18:07:17.098Z,9.40
2018-05-13T18:09:49.650Z,10.00
2018-05-13T18:12:22.137Z,10.83
2018-05-13T18:14:55.443Z,10.57
2018-05-13T18:17:29.427Z,9.17
2018-05-13T18:20:02.031Z,10.17
2018-05-13T18:22:34.855Z,13.40
2018-05-13T18:25:07.438Z,13.87
2018-05-13T18:27:44.815Z,15.70
2018-05-13T18:30:17.475Z,14.10
2018-05-13T18:32:50.032Z,14.13
2018-05-13T18:35:23.199Z,16.63
2018-05-13T18:37:58.775Z,16.17
2018-05-13T18:40:31.411Z,16.43
2018-05-13T18:43:03.979Z,16.30
2018-05-13T18:45:36.562Z,18.10
2018-05-13T18:48:09.671Z,18.10
2018-05-13T18:50:42.318Z,14.77
2018-05-13T18:53:15.566Z,13.40
2018-05-13T18:55:47.932Z,12.50
2018-05-13T18:58:20.280Z,9.50
2018-05-13T19:00:52.757Z,11.23
2018-05-13T19:03:25.199Z,9.17
2018-05-13T19:05:57.849Z,8.00
2018-05-13T19:08:30.395Z,8.10
2018-05-13T19:11:02.734Z,6.80
2018-05-13T19:13:35.051Z,6.83
2018-05-13T19:16:07.627Z,8.17
2018-05-13T19:18:40.767Z,6.60
2018-05-13T19:21:17.119Z,9.13
2018-05-13T19:23:49.526Z,8.60
2018-05-13T19:26:21.886Z,6.83
2018-05-13T19:28:54.286Z,6.97
2018-05-13T19:31:26.703Z,7.93
2018-05-13T19:33:59.213Z,13.80
2018-05-13T19:36:31.666Z,7.47
2018-05-13T19:39:04.130Z,6.90
2018-05-13T19:41:36.572Z,9.27
2018-05-13T19:44:08.963Z,9.63
2018-05-13T19:46:41.394Z,9.23
2018-05-13T19:49:13.822Z,8.30
2018-05-13T19:51:47.179Z,9.80
2018-05-13T19:54:20.230Z,7.70
2018-05-13T19:56:53.387Z,9.00
2018-05-13T19:59:26.730Z,9.30
2018-05-13T20:01:59.183Z,9.00
2018-05-13T20:04:31.625Z,10.03
2018-05-13T20:07:04.199Z,9.30
2018-05-13T20:09:38.033Z,8.50
2018-05-13T20:12:10.702Z,12.90
2018-05-13T20:14:44.283Z,15.93
2018-05-13T20:17:16.556Z,12.30
2018-05-13T20:19:49.010Z,12.60
2018-05-13T20:22:22.322Z,10.87
2018-05-13T20:24:54.755Z,11.47
2018-05-13T20:27:27.737Z,14.03
2018-05-13T20:30:01.124Z,11.00
2018-05-13T20:32:34.411Z,9.90
2018-05-13T20:35:07.952Z,16.00
2018-05-13T20:37:44.877Z,13.60
2018-05-13T20:40:17.525Z,12.37
2018-05-13T20:42:49.962Z,10.50
2018-05-13T20:45:22.351Z,11.53
2018-05-13T20:47:55.052Z,9.50
2018-05-13T20:50:27.767Z,11.57
2018-05-13T20:53:00.214Z,10.10
2018-05-13T20:55:33.000Z,10.53
2018-05-13T20:58:05.548Z,10.03
2018-05-13T21:00:38.518Z,8.90
2018-05-13T21:03:11.419Z,8.70
2018-05-13T21:05:44.079Z,7.30
2018-05-13T21:08:16.610Z,8.37
2018-05-13T21:10:49.001Z,7.57
2018-05-13T21:13:21.378Z,7.33
2018-05-13T21:15:53.923Z,8.37
2018-05-13T21:18:26.242Z,6.10
2018-05-13T21:20:58.714Z,7.23
2018-05-13T21:23:31.262Z,6.50
2018-05-13T21:26:07.228Z,6.40
2018-05-13T21:28:39.810Z,9.00
2018-05-13T21:31:12.306Z,10.87
2018-05-13T21:33:45.591Z,7.73
2018-05-13T21:36:18.100Z,5.10
2018-05-13T21:38:51.241Z,6.30
2018-05-13T21:41:24.599Z,5.87
2018-05-13T21:43:56.998Z,6.60
2018-05-13T21:46:30.347Z,7.33
2018-05-13T21:49:03.976Z,5.77
2018-05-13T21:51:37.301Z,5.70
2018-05-13T21:54:10.664Z,5.80
2018-05-13T21:56:43.118Z,8.93
2018-05-13T21:59:15.763Z,6.33
2018-05-13T22:01:48.302Z,7.57
2018-05-13T22:04:20.625Z,4.80
2018-05-13T22:06:53.066Z,5.10
2018-05-13T22:09:25.462Z,7.53
2018-05-13T22:11:57.815Z,7.20
2018-05-13T22:14:30.167Z,5.00
2018-05-13T22:17:02.770Z,4.60
2018-05-13T22:19:36.744Z,4.53
2018-05-13T22:22:09.952Z,4.50
2018-05-13T22:24:42.578Z,3.73
2018-05-13T22:27:15.063Z,5.63
2018-05-13T22:29:47.608Z,4.53
2018-05-13T22:32:20.938Z,4.23
2018-05-13T22:34:53.535Z,3.93
2018-05-13T22:37:26.123Z,4.90
2018-05-13T22:39:58.540Z,4.83
2018-05-13T22:42:34.719Z,5.03
2018-05-13T22:45:07.350Z,5.50
2018-05-13T22:47:39.791Z,3.33
2018-05-13T22:50:12.963Z,4.57
2018-05-13T22:52:46.208Z,3.37
2018-05-13T22:55:19.811Z,3.30
2018-05-13T22:57:52.259Z,3.30
2018-05-13T23:00:24.721Z,3.00
2018-05-13T23:02:57.416Z,4.03
2018-05-13T23:05:37.526Z,3.07
2018-05-13T23:08:09.986Z,3.60
2018-05-13T23:10:43.414Z,2.93
2018-05-13T23:13:15.800Z,3.90
2018-05-13T23:15:48.513Z,3.40
2018-05-13T23:18:21.295Z,3.50
2018-05-13T23:20:53.797Z,4.03
2018-05-13T23:23:26.127Z,3.13
2018-05-13T23:25:59.456Z,3.63
2018-05-13T23:28:32.095Z,4.17
2018-05-13T23:31:04.750Z,2.43
2018-05-13T23:33:38.226Z,5.23
2018-05-13T23:36:10.890Z,2.57
2018-05-13T23:38:44.671Z,3.10
2018-05-13T23:41:17.460Z,3.60
2018-05-13T23:43:50.003Z,1.90
2018-05-13T23:46:22.546Z,2.30
2018-05-13T23:48:55.166Z,2.07
2018-05-13T23:51:28.547Z,1.93
2018-05-13T23:54:01.102Z,1.77
2018-05-13T23:56:33.602Z,1.70
2018-05-13T23:59:06.434Z,1.70
